sensor_id;sensor_type;location;lat;lon;timestamp;P1;durP1;ratioP1;P2;durP2;ratioP2
12976;SDS011;6553;48.412;9.514;2023-06-22T00:01:58;4.85;;;4.45;;
12976;SDS011;6553;48.412;9.514;2023-06-22T00:04:24;4.07;;;3.67;;
12976;SDS011;6553;48.412;9.514;2023-06-22T00:06:50;4.85;;;3.70;;
12976;SDS011;6553;48.412;9.514;2023-06-22T00:09:16;4.68;;;4.28;;
12976;SDS011;6553;48.412;9.514;2023-06-22T00:11:42;5.57;;;4.43;;
12976;SDS011;6553;48.412;9.514;2023-06-22T00:14:08;4.05;;;3.75;;
12976;SDS011;6553;48.412;9.514;2023-06-22T00:16:33;4.45;;;3.90;;
12976;SDS011;6553;48.412;9.514;2023-06-22T00:19:00;3.95;;;3.63;;
12976;SDS011;6553;48.412;9.514;2023-06-22T00:21:27;3.75;;;3.45;;
12976;SDS011;6553;48.412;9.514;2023-06-22T00:23:53;4.18;;;3.88;;
12976;SDS011;6553;48.412;9.514;2023-06-22T00:26:19;4.50;;;4.10;;
12976;SDS011;6553;48.412;9.514;2023-06-22T00:28:46;4.30;;;3.70;;
12976;SDS011;6553;48.412;9.514;2023-06-22T00:31:12;4.07;;;3.70;;
12976;SDS011;6553;48.412;9.514;2023-06-22T00:33:38;4.88;;;4.38;;
12976;SDS011;6553;48.412;9.514;2023-06-22T00:36:05;4.32;;;3.92;;
12976;SDS011;6553;48.412;9.514;2023-06-22T00:38:33;4.20;;;3.85;;
12976;SDS011;6553;48.412;9.514;2023-06-22T00:41:00;4.45;;;4.05;;
12976;SDS011;6553;48.412;9.514;2023-06-22T00:43:26;5.22;;;3.90;;
12976;SDS011;6553;48.412;9.514;2023-06-22T00:45:52;4.07;;;3.78;;
12976;SDS011;6553;48.412;9.514;2023-06-22T00:48:21;4.85;;;3.70;;
12976;SDS011;6553;48.412;9.514;2023-06-22T00:50:47;4.68;;;3.70;;
12976;SDS011;6553;48.412;9.514;2023-06-22T00:53:16;4.00;;;3.70;;
12976;SDS011;6553;48.412;9.514;2023-06-22T00:55:43;3.88;;;3.53;;
12976;SDS011;6553;48.412;9.514;2023-06-22T00:58:11;3.92;;;3.53;;
12976;SDS011;6553;48.412;9.514;2023-06-22T01:00:40;3.70;;;3.40;;
12976;SDS011;6553;48.412;9.514;2023-06-22T01:03:07;4.28;;;3.88;;
12976;SDS011;6553;48.412;9.514;2023-06-22T01:05:34;4.50;;;3.78;;
12976;SDS011;6553;48.412;9.514;2023-06-22T01:08:13;3.63;;;3.33;;
12976;SDS011;6553;48.412;9.514;2023-06-22T01:11:07;4.20;;;3.65;;
12976;SDS011;6553;48.412;9.514;2023-06-22T01:13:45;4.93;;;3.65;;
12976;SDS011;6553;48.412;9.514;2023-06-22T01:16:40;4.10;;;3.70;;
12976;SDS011;6553;48.412;9.514;2023-06-22T01:21:50;3.45;;;3.03;;
12976;SDS011;6553;48.412;9.514;2023-06-22T01:24:23;3.40;;;3.10;;
12976;SDS011;6553;48.412;9.514;2023-06-22T01:27:05;4.07;;;3.72;;
12976;SDS011;6553;48.412;9.514;2023-06-22T01:30:07;4.05;;;3.75;;
12976;SDS011;6553;48.412;9.514;2023-06-22T01:32:35;3.92;;;3.40;;
12976;SDS011;6553;48.412;9.514;2023-06-22T01:35:04;3.85;;;3.55;;
12976;SDS011;6553;48.412;9.514;2023-06-22T01:37:33;3.58;;;3.28;;
12976;SDS011;6553;48.412;9.514;2023-06-22T01:40:02;4.60;;;3.78;;
12976;SDS011;6553;48.412;9.514;2023-06-22T01:42:31;4.63;;;4.00;;
12976;SDS011;6553;48.412;9.514;2023-06-22T01:44:58;3.85;;;3.55;;
12976;SDS011;6553;48.412;9.514;2023-06-22T01:47:25;3.92;;;3.53;;
12976;SDS011;6553;48.412;9.514;2023-06-22T01:49:52;3.90;;;3.38;;
12976;SDS011;6553;48.412;9.514;2023-06-22T01:52:19;3.55;;;3.25;;
12976;SDS011;6553;48.412;9.514;2023-06-22T01:54:48;3.60;;;3.30;;
12976;SDS011;6553;48.412;9.514;2023-06-22T01:57:14;3.80;;;2.95;;
12976;SDS011;6553;48.412;9.514;2023-06-22T01:59:47;3.92;;;3.45;;
12976;SDS011;6553;48.412;9.514;2023-06-22T02:02:47;4.68;;;3.22;;
12976;SDS011;6553;48.412;9.514;2023-06-22T02:05:21;3.67;;;3.35;;
12976;SDS011;6553;48.412;9.514;2023-06-22T02:08:01;3.38;;;3.08;;
12976;SDS011;6553;48.412;9.514;2023-06-22T02:10:41;3.33;;;3.03;;
12976;SDS011;6553;48.412;9.514;2023-06-22T02:13:10;3.92;;;3.08;;
12976;SDS011;6553;48.412;9.514;2023-06-22T02:15:38;4.05;;;3.65;;
12976;SDS011;6553;48.412;9.514;2023-06-22T02:18:04;4.22;;;3.83;;
12976;SDS011;6553;48.412;9.514;2023-06-22T02:20:30;3.75;;;3.45;;
12976;SDS011;6553;48.412;9.514;2023-06-22T02:22:56;3.85;;;3.40;;
12976;SDS011;6553;48.412;9.514;2023-06-22T02:25:22;3.78;;;3.35;;
12976;SDS011;6553;48.412;9.514;2023-06-22T02:27:48;3.60;;;3.30;;
12976;SDS011;6553;48.412;9.514;2023-06-22T02:30:16;3.33;;;3.03;;
12976;SDS011;6553;48.412;9.514;2023-06-22T02:32:42;5.30;;;3.70;;
12976;SDS011;6553;48.412;9.514;2023-06-22T02:35:09;4.30;;;3.90;;
12976;SDS011;6553;48.412;9.514;2023-06-22T02:37:36;3.42;;;3.17;;
12976;SDS011;6553;48.412;9.514;2023-06-22T02:40:07;3.35;;;3.05;;
12976;SDS011;6553;48.412;9.514;2023-06-22T02:42:34;3.75;;;3.17;;
12976;SDS011;6553;48.412;9.514;2023-06-22T02:45:01;4.88;;;3.60;;
12976;SDS011;6553;48.412;9.514;2023-06-22T02:47:26;3.55;;;2.95;;
12976;SDS011;6553;48.412;9.514;2023-06-22T02:49:53;4.13;;;2.72;;
12976;SDS011;6553;48.412;9.514;2023-06-22T02:52:19;3.60;;;2.95;;
12976;SDS011;6553;48.412;9.514;2023-06-22T02:54:44;3.00;;;2.78;;
12976;SDS011;6553;48.412;9.514;2023-06-22T02:57:12;3.30;;;3.00;;
12976;SDS011;6553;48.412;9.514;2023-06-22T02:59:40;3.42;;;3.15;;
12976;SDS011;6553;48.412;9.514;2023-06-22T03:02:08;3.40;;;3.10;;
12976;SDS011;6553;48.412;9.514;2023-06-22T03:04:35;3.13;;;2.83;;
12976;SDS011;6553;48.412;9.514;2023-06-22T03:07:01;3.30;;;3.00;;
12976;SDS011;6553;48.412;9.514;2023-06-22T03:09:29;3.97;;;3.38;;
12976;SDS011;6553;48.412;9.514;2023-06-22T03:11:56;3.20;;;2.90;;
12976;SDS011;6553;48.412;9.514;2023-06-22T03:14:26;3.63;;;3.17;;
12976;SDS011;6553;48.412;9.514;2023-06-22T03:16:52;3.38;;;2.83;;
12976;SDS011;6553;48.412;9.514;2023-06-22T03:19:18;3.20;;;2.90;;
12976;SDS011;6553;48.412;9.514;2023-06-22T03:21:47;3.55;;;3.00;;
12976;SDS011;6553;48.412;9.514;2023-06-22T03:24:12;4.65;;;3.50;;
12976;SDS011;6553;48.412;9.514;2023-06-22T03:26:38;3.25;;;2.83;;
12976;SDS011;6553;48.412;9.514;2023-06-22T03:29:04;3.25;;;3.00;;
12976;SDS011;6553;48.412;9.514;2023-06-22T03:31:30;3.65;;;3.28;;
12976;SDS011;6553;48.412;9.514;2023-06-22T03:33:56;3.42;;;3.13;;
12976;SDS011;6553;48.412;9.514;2023-06-22T03:36:22;3.85;;;3.47;;
12976;SDS011;6553;48.412;9.514;2023-06-22T03:38:49;3.47;;;3.03;;
12976;SDS011;6553;48.412;9.514;2023-06-22T03:41:16;3.45;;;3.08;;
12976;SDS011;6553;48.412;9.514;2023-06-22T03:43:42;3.15;;;2.95;;
12976;SDS011;6553;48.412;9.514;2023-06-22T03:46:08;3.17;;;2.88;;
12976;SDS011;6553;48.412;9.514;2023-06-22T03:48:34;3.63;;;3.33;;
12976;SDS011;6553;48.412;9.514;2023-06-22T03:51:00;3.33;;;3.03;;
12976;SDS011;6553;48.412;9.514;2023-06-22T03:53:28;3.17;;;2.88;;
12976;SDS011;6553;48.412;9.514;2023-06-22T03:55:54;3.40;;;2.72;;
12976;SDS011;6553;48.412;9.514;2023-06-22T03:58:21;3.40;;;3.10;;
12976;SDS011;6553;48.412;9.514;2023-06-22T04:00:47;4.13;;;3.03;;
12976;SDS011;6553;48.412;9.514;2023-06-22T04:03:16;3.50;;;3.05;;
12976;SDS011;6553;48.412;9.514;2023-06-22T04:05:45;3.40;;;3.10;;
12976;SDS011;6553;48.412;9.514;2023-06-22T04:08:12;3.67;;;3.08;;
12976;SDS011;6553;48.412;9.514;2023-06-22T04:10:39;3.50;;;3.20;;
12976;SDS011;6553;48.412;9.514;2023-06-22T04:13:04;3.25;;;2.95;;
12976;SDS011;6553;48.412;9.514;2023-06-22T04:15:31;3.53;;;2.97;;
12976;SDS011;6553;48.412;9.514;2023-06-22T04:17:56;3.08;;;2.78;;
12976;SDS011;6553;48.412;9.514;2023-06-22T04:20:22;3.65;;;2.92;;
12976;SDS011;6553;48.412;9.514;2023-06-22T04:22:54;3.20;;;3.00;;
12976;SDS011;6553;48.412;9.514;2023-06-22T04:25:20;4.05;;;2.92;;
12976;SDS011;6553;48.412;9.514;2023-06-22T04:27:47;3.50;;;3.10;;
12976;SDS011;6553;48.412;9.514;2023-06-22T04:30:13;4.32;;;3.22;;
12976;SDS011;6553;48.412;9.514;2023-06-22T04:32:42;3.35;;;3.05;;
12976;SDS011;6553;48.412;9.514;2023-06-22T04:35:08;3.50;;;3.20;;
12976;SDS011;6553;48.412;9.514;2023-06-22T04:37:35;3.33;;;3.03;;
12976;SDS011;6553;48.412;9.514;2023-06-22T04:40:02;3.05;;;2.85;;
12976;SDS011;6553;48.412;9.514;2023-06-22T04:42:30;3.35;;;3.05;;
12976;SDS011;6553;48.412;9.514;2023-06-22T04:44:57;3.33;;;3.03;;
12976;SDS011;6553;48.412;9.514;2023-06-22T04:47:22;3.45;;;2.70;;
12976;SDS011;6553;48.412;9.514;2023-06-22T04:49:48;3.13;;;2.80;;
12976;SDS011;6553;48.412;9.514;2023-06-22T04:52:14;3.40;;;2.97;;
12976;SDS011;6553;48.412;9.514;2023-06-22T04:54:45;2.97;;;2.78;;
12976;SDS011;6553;48.412;9.514;2023-06-22T04:57:13;3.95;;;3.20;;
12976;SDS011;6553;48.412;9.514;2023-06-22T04:59:40;3.38;;;3.08;;
12976;SDS011;6553;48.412;9.514;2023-06-22T05:02:06;3.40;;;3.10;;
12976;SDS011;6553;48.412;9.514;2023-06-22T05:04:33;3.05;;;2.75;;
12976;SDS011;6553;48.412;9.514;2023-06-22T05:07:03;2.97;;;2.78;;
12976;SDS011;6553;48.412;9.514;2023-06-22T05:09:29;3.83;;;3.33;;
12976;SDS011;6553;48.412;9.514;2023-06-22T05:11:56;3.30;;;3.00;;
12976;SDS011;6553;48.412;9.514;2023-06-22T05:14:23;3.63;;;2.88;;
12976;SDS011;6553;48.412;9.514;2023-06-22T05:16:48;3.65;;;3.22;;
12976;SDS011;6553;48.412;9.514;2023-06-22T05:19:16;2.80;;;2.60;;
12976;SDS011;6553;48.412;9.514;2023-06-22T05:21:42;3.38;;;3.08;;
12976;SDS011;6553;48.412;9.514;2023-06-22T05:24:08;3.05;;;2.85;;
12976;SDS011;6553;48.412;9.514;2023-06-22T05:26:34;3.30;;;3.00;;
12976;SDS011;6553;48.412;9.514;2023-06-22T05:29:01;3.30;;;3.00;;
12976;SDS011;6553;48.412;9.514;2023-06-22T05:31:28;3.28;;;2.97;;
12976;SDS011;6553;48.412;9.514;2023-06-22T05:33:55;2.85;;;2.65;;
12976;SDS011;6553;48.412;9.514;2023-06-22T05:36:21;3.28;;;2.95;;
12976;SDS011;6553;48.412;9.514;2023-06-22T05:38:51;3.80;;;3.40;;
12976;SDS011;6553;48.412;9.514;2023-06-22T05:41:21;3.38;;;3.00;;
12976;SDS011;6553;48.412;9.514;2023-06-22T05:43:47;3.38;;;2.90;;
12976;SDS011;6553;48.412;9.514;2023-06-22T05:46:13;3.20;;;2.90;;
12976;SDS011;6553;48.412;9.514;2023-06-22T05:48:39;3.58;;;2.80;;
12976;SDS011;6553;48.412;9.514;2023-06-22T05:51:04;2.58;;;2.38;;
12976;SDS011;6553;48.412;9.514;2023-06-22T05:53:31;3.10;;;2.90;;
12976;SDS011;6553;48.412;9.514;2023-06-22T05:55:59;3.40;;;3.10;;
12976;SDS011;6553;48.412;9.514;2023-06-22T05:58:24;2.90;;;2.70;;
12976;SDS011;6553;48.412;9.514;2023-06-22T06:00:50;3.20;;;2.90;;
12976;SDS011;6553;48.412;9.514;2023-06-22T06:03:16;3.58;;;3.28;;
12976;SDS011;6553;48.412;9.514;2023-06-22T06:05:42;5.38;;;3.42;;
12976;SDS011;6553;48.412;9.514;2023-06-22T06:08:08;3.30;;;3.00;;
12976;SDS011;6553;48.412;9.514;2023-06-22T06:10:36;3.95;;;3.10;;
12976;SDS011;6553;48.412;9.514;2023-06-22T06:13:02;3.65;;;3.10;;
12976;SDS011;6553;48.412;9.514;2023-06-22T06:15:29;4.07;;;2.85;;
12976;SDS011;6553;48.412;9.514;2023-06-22T06:17:56;3.50;;;3.00;;
12976;SDS011;6553;48.412;9.514;2023-06-22T06:20:23;3.33;;;3.03;;
12976;SDS011;6553;48.412;9.514;2023-06-22T06:22:53;3.80;;;3.42;;
12976;SDS011;6553;48.412;9.514;2023-06-22T06:25:19;3.53;;;2.97;;
12976;SDS011;6553;48.412;9.514;2023-06-22T06:27:46;3.60;;;3.30;;
12976;SDS011;6553;48.412;9.514;2023-06-22T06:30:14;3.28;;;2.95;;
12976;SDS011;6553;48.412;9.514;2023-06-22T06:32:42;4.35;;;3.03;;
12976;SDS011;6553;48.412;9.514;2023-06-22T06:35:10;3.60;;;3.30;;
12976;SDS011;6553;48.412;9.514;2023-06-22T06:37:41;4.45;;;3.50;;
12976;SDS011;6553;48.412;9.514;2023-06-22T06:40:13;3.70;;;3.30;;
12976;SDS011;6553;48.412;9.514;2023-06-22T06:42:41;3.70;;;3.20;;
12976;SDS011;6553;48.412;9.514;2023-06-22T06:45:12;3.50;;;3.20;;
12976;SDS011;6553;48.412;9.514;2023-06-22T06:47:42;3.70;;;3.25;;
12976;SDS011;6553;48.412;9.514;2023-06-22T06:50:08;3.88;;;3.28;;
12976;SDS011;6553;48.412;9.514;2023-06-22T06:52:36;3.80;;;3.40;;
12976;SDS011;6553;48.412;9.514;2023-06-22T06:55:02;4.45;;;3.17;;
12976;SDS011;6553;48.412;9.514;2023-06-22T06:57:29;3.70;;;3.40;;
12976;SDS011;6553;48.412;9.514;2023-06-22T06:59:56;4.18;;;3.58;;
12976;SDS011;6553;48.412;9.514;2023-06-22T07:02:23;4.40;;;3.50;;
12976;SDS011;6553;48.412;9.514;2023-06-22T07:04:49;4.22;;;3.38;;
12976;SDS011;6553;48.412;9.514;2023-06-22T07:07:16;3.97;;;3.53;;
12976;SDS011;6553;48.412;9.514;2023-06-22T07:09:42;5.45;;;3.20;;
12976;SDS011;6553;48.412;9.514;2023-06-22T07:12:07;4.20;;;3.38;;
12976;SDS011;6553;48.412;9.514;2023-06-22T07:14:33;4.18;;;3.50;;
12976;SDS011;6553;48.412;9.514;2023-06-22T07:16:59;4.18;;;3.78;;
12976;SDS011;6553;48.412;9.514;2023-06-22T07:19:25;3.42;;;3.13;;
12976;SDS011;6553;48.412;9.514;2023-06-22T07:21:53;4.28;;;3.17;;
12976;SDS011;6553;48.412;9.514;2023-06-22T07:24:19;3.83;;;3.53;;
12976;SDS011;6553;48.412;9.514;2023-06-22T07:26:49;5.63;;;4.03;;
12976;SDS011;6553;48.412;9.514;2023-06-22T07:29:19;3.72;;;3.33;;
12976;SDS011;6553;48.412;9.514;2023-06-22T07:31:46;5.50;;;4.18;;
12976;SDS011;6553;48.412;9.514;2023-06-22T07:34:13;4.53;;;3.80;;
12976;SDS011;6553;48.412;9.514;2023-06-22T07:36:38;3.95;;;3.38;;
12976;SDS011;6553;48.412;9.514;2023-06-22T07:39:05;3.90;;;3.33;;
12976;SDS011;6553;48.412;9.514;2023-06-22T07:41:31;3.30;;;2.92;;
12976;SDS011;6553;48.412;9.514;2023-06-22T07:43:57;4.82;;;3.55;;
12976;SDS011;6553;48.412;9.514;2023-06-22T07:46:23;4.90;;;3.65;;
12976;SDS011;6553;48.412;9.514;2023-06-22T07:48:49;3.88;;;3.45;;
12976;SDS011;6553;48.412;9.514;2023-06-22T07:51:15;4.47;;;3.55;;
12976;SDS011;6553;48.412;9.514;2023-06-22T07:53:41;4.97;;;3.50;;
12976;SDS011;6553;48.412;9.514;2023-06-22T07:56:12;3.55;;;3.25;;
12976;SDS011;6553;48.412;9.514;2023-06-22T07:58:38;4.88;;;3.95;;
12976;SDS011;6553;48.412;9.514;2023-06-22T08:01:04;6.13;;;4.05;;
12976;SDS011;6553;48.412;9.514;2023-06-22T08:03:31;4.28;;;3.70;;
12976;SDS011;6553;48.412;9.514;2023-06-22T08:05:57;6.95;;;3.85;;
12976;SDS011;6553;48.412;9.514;2023-06-22T08:08:23;4.18;;;3.63;;
12976;SDS011;6553;48.412;9.514;2023-06-22T08:10:49;5.40;;;3.80;;
12976;SDS011;6553;48.412;9.514;2023-06-22T08:13:15;4.30;;;3.60;;
12976;SDS011;6553;48.412;9.514;2023-06-22T08:15:40;4.72;;;3.70;;
12976;SDS011;6553;48.412;9.514;2023-06-22T08:18:06;3.80;;;3.38;;
12976;SDS011;6553;48.412;9.514;2023-06-22T08:20:32;6.38;;;3.83;;
12976;SDS011;6553;48.412;9.514;2023-06-22T08:22:58;4.10;;;3.50;;
12976;SDS011;6553;48.412;9.514;2023-06-22T08:25:30;4.93;;;3.90;;
12976;SDS011;6553;48.412;9.514;2023-06-22T08:27:56;4.05;;;3.65;;
12976;SDS011;6553;48.412;9.514;2023-06-22T08:30:22;4.95;;;3.67;;
12976;SDS011;6553;48.412;9.514;2023-06-22T08:32:48;4.20;;;3.72;;
12976;SDS011;6553;48.412;9.514;2023-06-22T08:35:14;4.57;;;3.63;;
12976;SDS011;6553;48.412;9.514;2023-06-22T08:37:40;4.50;;;3.60;;
12976;SDS011;6553;48.412;9.514;2023-06-22T08:40:06;3.65;;;3.35;;
12976;SDS011;6553;48.412;9.514;2023-06-22T08:42:37;4.78;;;3.67;;
12976;SDS011;6553;48.412;9.514;2023-06-22T08:45:06;4.70;;;3.45;;
12976;SDS011;6553;48.412;9.514;2023-06-22T08:47:32;3.55;;;3.03;;
12976;SDS011;6553;48.412;9.514;2023-06-22T08:49:58;3.47;;;3.15;;
12976;SDS011;6553;48.412;9.514;2023-06-22T08:52:24;4.28;;;3.45;;
12976;SDS011;6553;48.412;9.514;2023-06-22T08:54:50;5.32;;;3.60;;
12976;SDS011;6553;48.412;9.514;2023-06-22T08:57:16;4.82;;;3.40;;
12976;SDS011;6553;48.412;9.514;2023-06-22T08:59:42;4.10;;;3.65;;
12976;SDS011;6553;48.412;9.514;2023-06-22T09:02:08;4.70;;;3.83;;
12976;SDS011;6553;48.412;9.514;2023-06-22T09:04:34;4.30;;;3.90;;
12976;SDS011;6553;48.412;9.514;2023-06-22T09:07:03;5.10;;;3.40;;
12976;SDS011;6553;48.412;9.514;2023-06-22T09:09:29;5.30;;;3.75;;
12976;SDS011;6553;48.412;9.514;2023-06-22T09:11:55;3.90;;;3.50;;
12976;SDS011;6553;48.412;9.514;2023-06-22T09:14:21;3.25;;;2.95;;
12976;SDS011;6553;48.412;9.514;2023-06-22T09:16:47;3.92;;;3.45;;
12976;SDS011;6553;48.412;9.514;2023-06-22T09:19:13;5.53;;;3.72;;
12976;SDS011;6553;48.412;9.514;2023-06-22T09:21:38;4.70;;;4.20;;
12976;SDS011;6553;48.412;9.514;2023-06-22T09:24:04;4.78;;;3.88;;
12976;SDS011;6553;48.412;9.514;2023-06-22T09:26:30;4.50;;;4.10;;
12976;SDS011;6553;48.412;9.514;2023-06-22T09:28:56;4.88;;;3.72;;
12976;SDS011;6553;48.412;9.514;2023-06-22T09:31:23;6.30;;;4.07;;
12976;SDS011;6553;48.412;9.514;2023-06-22T09:33:53;6.28;;;4.65;;
12976;SDS011;6553;48.412;9.514;2023-06-22T09:36:20;6.72;;;4.90;;
12976;SDS011;6553;48.412;9.514;2023-06-22T09:38:47;6.45;;;5.00;;
12976;SDS011;6553;48.412;9.514;2023-06-22T09:41:14;7.35;;;5.00;;
12976;SDS011;6553;48.412;9.514;2023-06-22T09:43:41;6.43;;;4.72;;
12976;SDS011;6553;48.412;9.514;2023-06-22T09:46:06;6.45;;;5.13;;
12976;SDS011;6553;48.412;9.514;2023-06-22T09:48:34;5.57;;;4.45;;
12976;SDS011;6553;48.412;9.514;2023-06-22T09:51:00;6.03;;;4.97;;
12976;SDS011;6553;48.412;9.514;2023-06-22T09:53:25;7.97;;;5.47;;
12976;SDS011;6553;48.412;9.514;2023-06-22T09:55:51;6.28;;;5.20;;
12976;SDS011;6553;48.412;9.514;2023-06-22T09:58:17;7.03;;;4.50;;
12976;SDS011;6553;48.412;9.514;2023-06-22T10:00:43;8.13;;;5.38;;
12976;SDS011;6553;48.412;9.514;2023-06-22T10:03:08;5.15;;;4.55;;
12976;SDS011;6553;48.412;9.514;2023-06-22T10:05:34;7.35;;;5.30;;
12976;SDS011;6553;48.412;9.514;2023-06-22T10:08:00;7.00;;;4.60;;
12976;SDS011;6553;48.412;9.514;2023-06-22T10:10:26;5.80;;;4.93;;
12976;SDS011;6553;48.412;9.514;2023-06-22T10:12:55;6.72;;;5.22;;
12976;SDS011;6553;48.412;9.514;2023-06-22T10:15:23;7.13;;;5.10;;
12976;SDS011;6553;48.412;9.514;2023-06-22T10:17:49;8.05;;;4.97;;
12976;SDS011;6553;48.412;9.514;2023-06-22T10:20:15;5.60;;;5.03;;
12976;SDS011;6553;48.412;9.514;2023-06-22T10:22:43;7.75;;;5.25;;
12976;SDS011;6553;48.412;9.514;2023-06-22T10:25:11;8.13;;;5.75;;
12976;SDS011;6553;48.412;9.514;2023-06-22T10:27:38;8.27;;;5.57;;
12976;SDS011;6553;48.412;9.514;2023-06-22T10:30:05;5.30;;;4.38;;
12976;SDS011;6553;48.412;9.514;2023-06-22T10:32:38;8.27;;;5.45;;
12976;SDS011;6553;48.412;9.514;2023-06-22T10:35:05;7.38;;;5.28;;
12976;SDS011;6553;48.412;9.514;2023-06-22T10:37:33;6.57;;;5.05;;
12976;SDS011;6553;48.412;9.514;2023-06-22T10:39:59;7.93;;;5.75;;
12976;SDS011;6553;48.412;9.514;2023-06-22T10:42:24;7.82;;;5.13;;
12976;SDS011;6553;48.412;9.514;2023-06-22T10:44:51;7.15;;;5.82;;
12976;SDS011;6553;48.412;9.514;2023-06-22T10:47:16;6.22;;;5.38;;
12976;SDS011;6553;48.412;9.514;2023-06-22T10:49:42;8.27;;;5.35;;
12976;SDS011;6553;48.412;9.514;2023-06-22T10:52:08;7.32;;;5.47;;
12976;SDS011;6553;48.412;9.514;2023-06-22T10:54:34;7.00;;;5.53;;
12976;SDS011;6553;48.412;9.514;2023-06-22T10:57:01;6.22;;;4.97;;
12976;SDS011;6553;48.412;9.514;2023-06-22T10:59:28;8.95;;;5.90;;
12976;SDS011;6553;48.412;9.514;2023-06-22T11:01:58;8.45;;;5.15;;
12976;SDS011;6553;48.412;9.514;2023-06-22T11:04:24;7.60;;;5.85;;
12976;SDS011;6553;48.412;9.514;2023-06-22T11:06:50;6.75;;;5.30;;
12976;SDS011;6553;48.412;9.514;2023-06-22T11:09:16;7.82;;;5.28;;
12976;SDS011;6553;48.412;9.514;2023-06-22T11:11:46;8.38;;;5.03;;
12976;SDS011;6553;48.412;9.514;2023-06-22T11:14:12;7.75;;;5.65;;
12976;SDS011;6553;48.412;9.514;2023-06-22T11:16:38;7.50;;;5.15;;
12976;SDS011;6553;48.412;9.514;2023-06-22T11:19:04;7.85;;;5.57;;
12976;SDS011;6553;48.412;9.514;2023-06-22T11:21:31;5.90;;;5.22;;
12976;SDS011;6553;48.412;9.514;2023-06-22T11:23:58;6.40;;;4.80;;
12976;SDS011;6553;48.412;9.514;2023-06-22T11:26:25;6.53;;;5.18;;
12976;SDS011;6553;48.412;9.514;2023-06-22T11:28:53;8.90;;;5.07;;
12976;SDS011;6553;48.412;9.514;2023-06-22T11:31:19;11.82;;;5.18;;
12976;SDS011;6553;48.412;9.514;2023-06-22T11:33:45;6.70;;;5.47;;
12976;SDS011;6553;48.412;9.514;2023-06-22T11:36:12;8.68;;;5.32;;
12976;SDS011;6553;48.412;9.514;2023-06-22T11:38:38;7.28;;;5.43;;
12976;SDS011;6553;48.412;9.514;2023-06-22T11:41:07;8.20;;;5.90;;
12976;SDS011;6553;48.412;9.514;2023-06-22T11:43:35;5.40;;;4.80;;
12976;SDS011;6553;48.412;9.514;2023-06-22T11:46:05;6.45;;;5.40;;
12976;SDS011;6553;48.412;9.514;2023-06-22T11:48:31;8.70;;;5.25;;
12976;SDS011;6553;48.412;9.514;2023-06-22T11:50:57;6.63;;;5.10;;
12976;SDS011;6553;48.412;9.514;2023-06-22T11:53:24;6.20;;;5.22;;
12976;SDS011;6553;48.412;9.514;2023-06-22T11:55:51;9.02;;;5.50;;
12976;SDS011;6553;48.412;9.514;2023-06-22T11:58:19;6.45;;;5.55;;
12976;SDS011;6553;48.412;9.514;2023-06-22T12:00:44;6.40;;;4.90;;
12976;SDS011;6553;48.412;9.514;2023-06-22T12:03:10;7.65;;;5.35;;
12976;SDS011;6553;48.412;9.514;2023-06-22T12:05:37;6.95;;;5.10;;
12976;SDS011;6553;48.412;9.514;2023-06-22T12:08:03;6.95;;;5.68;;
12976;SDS011;6553;48.412;9.514;2023-06-22T12:10:29;6.97;;;5.05;;
12976;SDS011;6553;48.412;9.514;2023-06-22T12:12:56;7.07;;;5.03;;
12976;SDS011;6553;48.412;9.514;2023-06-22T12:15:25;7.18;;;5.13;;
12976;SDS011;6553;48.412;9.514;2023-06-22T12:17:52;7.75;;;5.43;;
12976;SDS011;6553;48.412;9.514;2023-06-22T12:20:18;7.78;;;5.40;;
12976;SDS011;6553;48.412;9.514;2023-06-22T12:22:44;7.72;;;4.80;;
12976;SDS011;6553;48.412;9.514;2023-06-22T12:25:10;6.65;;;5.38;;
12976;SDS011;6553;48.412;9.514;2023-06-22T12:27:36;7.78;;;5.30;;
12976;SDS011;6553;48.412;9.514;2023-06-22T12:30:02;6.68;;;5.28;;
12976;SDS011;6553;48.412;9.514;2023-06-22T12:32:31;7.68;;;5.50;;
12976;SDS011;6553;48.412;9.514;2023-06-22T12:34:56;6.95;;;5.22;;
12976;SDS011;6553;48.412;9.514;2023-06-22T12:37:22;6.20;;;5.05;;
12976;SDS011;6553;48.412;9.514;2023-06-22T12:39:48;5.40;;;4.90;;
12976;SDS011;6553;48.412;9.514;2023-06-22T12:42:15;6.43;;;4.90;;
12976;SDS011;6553;48.412;9.514;2023-06-22T12:44:41;8.63;;;5.60;;
12976;SDS011;6553;48.412;9.514;2023-06-22T12:47:08;5.82;;;4.90;;
12976;SDS011;6553;48.412;9.514;2023-06-22T12:49:37;6.97;;;4.90;;
12976;SDS011;6553;48.412;9.514;2023-06-22T12:52:08;6.13;;;5.03;;
12976;SDS011;6553;48.412;9.514;2023-06-22T12:54:36;6.22;;;4.80;;
12976;SDS011;6553;48.412;9.514;2023-06-22T12:57:02;6.72;;;5.22;;
12976;SDS011;6553;48.412;9.514;2023-06-22T12:59:28;7.18;;;5.25;;
12976;SDS011;6553;48.412;9.514;2023-06-22T13:01:53;5.43;;;4.53;;
12976;SDS011;6553;48.412;9.514;2023-06-22T13:04:19;6.47;;;5.70;;
12976;SDS011;6553;48.412;9.514;2023-06-22T13:06:46;7.35;;;5.38;;
12976;SDS011;6553;48.412;9.514;2023-06-22T13:09:13;6.35;;;5.38;;
12976;SDS011;6553;48.412;9.514;2023-06-22T13:11:41;6.20;;;5.13;;
12976;SDS011;6553;48.412;9.514;2023-06-22T13:14:08;6.93;;;5.20;;
12976;SDS011;6553;48.412;9.514;2023-06-22T13:16:33;6.78;;;5.05;;
12976;SDS011;6553;48.412;9.514;2023-06-22T13:18:59;7.18;;;5.32;;
12976;SDS011;6553;48.412;9.514;2023-06-22T13:21:25;7.28;;;5.25;;
12976;SDS011;6553;48.412;9.514;2023-06-22T13:23:51;6.38;;;5.55;;
12976;SDS011;6553;48.412;9.514;2023-06-22T13:26:17;6.53;;;5.50;;
12976;SDS011;6553;48.412;9.514;2023-06-22T13:28:43;8.30;;;5.28;;
12976;SDS011;6553;48.412;9.514;2023-06-22T13:31:09;6.68;;;4.60;;
12976;SDS011;6553;48.412;9.514;2023-06-22T13:33:35;6.95;;;5.38;;
12976;SDS011;6553;48.412;9.514;2023-06-22T13:36:03;5.75;;;4.55;;
12976;SDS011;6553;48.412;9.514;2023-06-22T13:38:31;6.15;;;4.75;;
12976;SDS011;6553;48.412;9.514;2023-06-22T13:40:57;5.50;;;4.72;;
12976;SDS011;6553;48.412;9.514;2023-06-22T13:43:24;7.40;;;5.55;;
12976;SDS011;6553;48.412;9.514;2023-06-22T13:45:52;5.38;;;4.88;;
12976;SDS011;6553;48.412;9.514;2023-06-22T13:48:17;7.07;;;5.30;;
12976;SDS011;6553;48.412;9.514;2023-06-22T13:50:43;7.82;;;5.18;;
12976;SDS011;6553;48.412;9.514;2023-06-22T13:53:09;6.95;;;5.60;;
12976;SDS011;6553;48.412;9.514;2023-06-22T13:55:35;7.97;;;5.78;;
12976;SDS011;6553;48.412;9.514;2023-06-22T13:58:01;6.47;;;5.35;;
12976;SDS011;6553;48.412;9.514;2023-06-22T14:00:26;6.50;;;5.55;;
12976;SDS011;6553;48.412;9.514;2023-06-22T14:02:53;6.60;;;5.15;;
12976;SDS011;6553;48.412;9.514;2023-06-22T14:05:19;7.93;;;5.10;;
12976;SDS011;6553;48.412;9.514;2023-06-22T14:07:45;7.93;;;5.50;;
12976;SDS011;6553;48.412;9.514;2023-06-22T14:10:11;7.03;;;5.05;;
12976;SDS011;6553;48.412;9.514;2023-06-22T14:12:38;6.57;;;5.43;;
12976;SDS011;6553;48.412;9.514;2023-06-22T14:15:04;6.07;;;4.97;;
12976;SDS011;6553;48.412;9.514;2023-06-22T14:17:30;7.40;;;5.30;;
12976;SDS011;6553;48.412;9.514;2023-06-22T14:19:56;8.10;;;5.10;;
12976;SDS011;6553;48.412;9.514;2023-06-22T14:22:22;7.60;;;5.68;;
12976;SDS011;6553;48.412;9.514;2023-06-22T14:24:48;9.02;;;5.18;;
12976;SDS011;6553;48.412;9.514;2023-06-22T14:27:14;9.27;;;5.25;;
12976;SDS011;6553;48.412;9.514;2023-06-22T14:29:40;7.10;;;5.35;;
12976;SDS011;6553;48.412;9.514;2023-06-22T14:32:07;8.45;;;5.07;;
12976;SDS011;6553;48.412;9.514;2023-06-22T14:34:34;9.27;;;5.05;;
12976;SDS011;6553;48.412;9.514;2023-06-22T14:37:01;6.10;;;5.28;;
12976;SDS011;6553;48.412;9.514;2023-06-22T14:39:28;7.18;;;4.90;;
12976;SDS011;6553;48.412;9.514;2023-06-22T14:41:53;6.68;;;5.45;;
12976;SDS011;6553;48.412;9.514;2023-06-22T14:44:19;7.03;;;5.45;;
12976;SDS011;6553;48.412;9.514;2023-06-22T14:46:45;7.45;;;5.47;;
12976;SDS011;6553;48.412;9.514;2023-06-22T14:49:11;7.03;;;6.00;;
12976;SDS011;6553;48.412;9.514;2023-06-22T14:51:37;8.15;;;5.50;;
12976;SDS011;6553;48.412;9.514;2023-06-22T14:54:02;8.18;;;5.75;;
12976;SDS011;6553;48.412;9.514;2023-06-22T14:56:28;8.93;;;5.50;;
12976;SDS011;6553;48.412;9.514;2023-06-22T14:58:54;6.93;;;5.07;;
12976;SDS011;6553;48.412;9.514;2023-06-22T15:01:20;5.90;;;5.03;;
12976;SDS011;6553;48.412;9.514;2023-06-22T15:03:47;9.65;;;5.35;;